McDaniels, KY

6:23 PM CST on February 11, 2016 (GMT -0600)
Eveleigh Road | | Change Station
CLOSE
Current Station
Personal Weather Station
Location: Leitchfield, KY
Elevation: 670 ft
Nearby Weather Stations
Active Advisory: Special Statement

Elev 670 ft 37.58 °N, 86.34 °W | Updated 10 seconds ago

Partly Cloudy
Partly Cloudy
29.7 °F
Feels Like 26 °F
N
3.8
Wind Variable Wind from NE
Gusts 3.8 mph

Today
High -- | Low -- °F
--% Chance of Precip.
Yesterday
High -- | Low -- °F
Precip. -- in
Pressure 30.28 in
Visibility 10.0 miles
Clouds Mostly Cloudy 12000 ft
Overcast 16000 ft
Windchill 26 °F
Dew Point 20 °F
Humidity 67%
Rainfall 0.00 in
Snow Depth Not available.
6:40 AM 5:20 PM
Waxing Crescent, 15% visible
SPECI KFTK 120014Z AUTO 35004KT 10SM BKN120 OVC160 M02/M12 A3028 RMK AO2 PRESRR
Pressure 30.28 in
Visibility 10.0 miles
Clouds Mostly Cloudy 12000 ft
Overcast 16000 ft
Windchill 26 °F
Dew Point 20 °F
Humidity 67%
Rainfall 0.00 in
Snow Depth Not available.
6:40 AM 5:20 PM
Waxing Crescent, 15% visible
SPECI KFTK 120014Z AUTO 35004KT 10SM BKN120 OVC160 M02/M12 A3028 RMK AO2 PRESRR

10-Day Weather Forecast

Almanac

Astronomy

Feb. 11, 2016 Rise Set
Actual Time
Civil Twilight
Nautical Twilight
Astronomical Twilight
Moon
Length of Visible Light
Length of Day
Tomorrow will be .
, % of the Moon is Illuminated

Today's Extremes

State Highs State Lows

Community

WunderPhotos

Upload Photos

1,892,191 photos uploaded!

WunderBlog® & News

Nearby

Air Quality

  Air Quality AQ Index Pollutant
Not available.

Snow Depth

Station Depth Elevation

Earthquake Activity

City Distance Mag. Time & Date
Minimum magnitude displayed is 2.5.

Coastal Water Temperatures

Place Temperature

Stations

Nearby Weather Stations

Station Location Temp. Windchill Dew Point Humidity Wind Precip. Elev Updated Type
                   

Watches & Warnings

Special Statement
Issued: 2:35 PM CST Feb. 11, 2016 – National Weather Service

... Light snow around the Friday morning commute...

Light snow will overspread the region just before and around dawn.
With temperatures in the upper teens and lower 20s... all snow will
stick to untreated surfaces. Although accumulations are only
expected to be a half an inch or less... a few slick spots are
expected for the morning commute. Use caution and allow extra time
if traveling in the morning.


Bjs


335 PM EST Thu Feb 11 2016 /235 PM CST Thu Feb 11 2016/

... Light snow around the Friday morning commute...

Light snow will overspread the region just before and around dawn.
With temperatures in the upper teens and lower 20s... all snow will
stick to untreated surfaces. Although accumulations are only
expected to be a half an inch or less... a few slick spots are
expected for the morning commute. Use caution and allow extra time
if traveling in the morning.


Bjs